sensor_id;sensor_type;location;lat;lon;timestamp;temperature;humidity
32895;DHT22;19251;49.484;8.260;2024-01-30T00:00:20;4.90;19.80
32895;DHT22;19251;49.484;8.260;2024-01-30T00:05:23;4.90;19.90
32895;DHT22;19251;49.484;8.260;2024-01-30T00:10:25;4.90;19.70
32895;DHT22;19251;49.484;8.260;2024-01-30T00:15:27;4.80;19.60
32895;DHT22;19251;49.484;8.260;2024-01-30T00:20:29;4.80;19.90
32895;DHT22;19251;49.484;8.260;2024-01-30T00:25:31;4.70;20.00
32895;DHT22;19251;49.484;8.260;2024-01-30T00:30:35;4.60;19.70
32895;DHT22;19251;49.484;8.260;2024-01-30T00:35:37;4.60;19.90
32895;DHT22;19251;49.484;8.260;2024-01-30T00:40:39;4.60;19.80
32895;DHT22;19251;49.484;8.260;2024-01-30T00:45:41;4.80;20.20
32895;DHT22;19251;49.484;8.260;2024-01-30T00:50:43;4.50;20.00
32895;DHT22;19251;49.484;8.260;2024-01-30T00:55:45;4.50;20.10
32895;DHT22;19251;49.484;8.260;2024-01-30T01:05:50;4.40;20.20
32895;DHT22;19251;49.484;8.260;2024-01-30T01:10:52;4.30;20.20
32895;DHT22;19251;49.484;8.260;2024-01-30T01:15:54;4.20;20.00
32895;DHT22;19251;49.484;8.260;2024-01-30T01:20:57;4.20;19.80
32895;DHT22;19251;49.484;8.260;2024-01-30T01:25:59;4.10;19.80
32895;DHT22;19251;49.484;8.260;2024-01-30T01:31:02;4.10;20.00
32895;DHT22;19251;49.484;8.260;2024-01-30T01:36:08;4.10;20.30
32895;DHT22;19251;49.484;8.260;2024-01-30T01:41:10;4.00;20.40
32895;DHT22;19251;49.484;8.260;2024-01-30T01:46:12;4.00;20.10
32895;DHT22;19251;49.484;8.260;2024-01-30T01:51:14;4.00;20.50
32895;DHT22;19251;49.484;8.260;2024-01-30T02:01:20;4.00;20.20
32895;DHT22;19251;49.484;8.260;2024-01-30T02:06:22;4.00;20.60
32895;DHT22;19251;49.484;8.260;2024-01-30T02:11:24;4.00;20.30
32895;DHT22;19251;49.484;8.260;2024-01-30T02:16:26;4.00;20.30
32895;DHT22;19251;49.484;8.260;2024-01-30T02:21:29;4.00;20.20
32895;DHT22;19251;49.484;8.260;2024-01-30T02:26:31;4.00;20.60
32895;DHT22;19251;49.484;8.260;2024-01-30T02:31:33;3.90;20.60
32895;DHT22;19251;49.484;8.260;2024-01-30T02:36:35;3.90;20.60
32895;DHT22;19251;49.484;8.260;2024-01-30T02:41:37;3.90;20.70
32895;DHT22;19251;49.484;8.260;2024-01-30T02:46:39;3.90;20.60
32895;DHT22;19251;49.484;8.260;2024-01-30T02:51:41;3.90;20.70
32895;DHT22;19251;49.484;8.260;2024-01-30T02:56:43;3.80;20.60
32895;DHT22;19251;49.484;8.260;2024-01-30T03:01:45;3.80;20.60
32895;DHT22;19251;49.484;8.260;2024-01-30T03:06:48;3.70;20.50
32895;DHT22;19251;49.484;8.260;2024-01-30T03:11:51;3.70;20.60
32895;DHT22;19251;49.484;8.260;2024-01-30T03:16:53;3.60;20.60
32895;DHT22;19251;49.484;8.260;2024-01-30T03:21:55;3.60;20.70
32895;DHT22;19251;49.484;8.260;2024-01-30T03:26:57;3.50;20.60
32895;DHT22;19251;49.484;8.260;2024-01-30T03:31:59;3.50;20.70
32895;DHT22;19251;49.484;8.260;2024-01-30T03:37:01;3.50;20.70
32895;DHT22;19251;49.484;8.260;2024-01-30T03:42:03;3.40;20.60
32895;DHT22;19251;49.484;8.260;2024-01-30T03:47:05;3.40;20.70
32895;DHT22;19251;49.484;8.260;2024-01-30T03:52:07;3.40;20.70
32895;DHT22;19251;49.484;8.260;2024-01-30T03:57:09;3.30;20.30
32895;DHT22;19251;49.484;8.260;2024-01-30T04:02:11;3.30;20.70
32895;DHT22;19251;49.484;8.260;2024-01-30T04:07:14;3.30;20.80
32895;DHT22;19251;49.484;8.260;2024-01-30T04:12:16;3.30;20.80
32895;DHT22;19251;49.484;8.260;2024-01-30T04:22:21;3.30;20.80
32895;DHT22;19251;49.484;8.260;2024-01-30T04:27:23;3.30;20.60
32895;DHT22;19251;49.484;8.260;2024-01-30T04:32:25;3.20;20.80
32895;DHT22;19251;49.484;8.260;2024-01-30T04:37:27;3.20;20.60
32895;DHT22;19251;49.484;8.260;2024-01-30T04:42:29;3.30;20.80
32895;DHT22;19251;49.484;8.260;2024-01-30T04:47:31;3.20;20.80
32895;DHT22;19251;49.484;8.260;2024-01-30T04:52:33;3.40;20.70
32895;DHT22;19251;49.484;8.260;2024-01-30T04:57:35;3.10;20.80
32895;DHT22;19251;49.484;8.260;2024-01-30T05:02:38;3.10;20.80
32895;DHT22;19251;49.484;8.260;2024-01-30T05:07:41;3.20;21.00
32895;DHT22;19251;49.484;8.260;2024-01-30T05:12:43;3.10;20.90
32895;DHT22;19251;49.484;8.260;2024-01-30T05:17:45;3.10;20.50
32895;DHT22;19251;49.484;8.260;2024-01-30T05:22:47;3.10;20.70
32895;DHT22;19251;49.484;8.260;2024-01-30T05:27:51;3.10;20.70
32895;DHT22;19251;49.484;8.260;2024-01-30T05:32:53;3.10;20.70
32895;DHT22;19251;49.484;8.260;2024-01-30T05:37:55;3.10;20.80
32895;DHT22;19251;49.484;8.260;2024-01-30T05:42:57;3.10;20.90
32895;DHT22;19251;49.484;8.260;2024-01-30T05:48:04;3.10;21.10
32895;DHT22;19251;49.484;8.260;2024-01-30T05:53:06;3.10;21.10
32895;DHT22;19251;49.484;8.260;2024-01-30T05:58:08;3.10;21.00
32895;DHT22;19251;49.484;8.260;2024-01-30T06:03:10;3.10;20.70
32895;DHT22;19251;49.484;8.260;2024-01-30T06:08:12;3.10;20.70
32895;DHT22;19251;49.484;8.260;2024-01-30T06:23:19;3.00;21.00
32895;DHT22;19251;49.484;8.260;2024-01-30T06:28:21;3.00;20.80
32895;DHT22;19251;49.484;8.260;2024-01-30T06:33:24;3.00;20.70
32895;DHT22;19251;49.484;8.260;2024-01-30T06:38:27;2.90;20.60
32895;DHT22;19251;49.484;8.260;2024-01-30T06:43:29;2.90;20.90
32895;DHT22;19251;49.484;8.260;2024-01-30T06:48:31;2.90;20.60
32895;DHT22;19251;49.484;8.260;2024-01-30T06:53:33;2.90;20.70
32895;DHT22;19251;49.484;8.260;2024-01-30T06:58:35;2.80;20.90
32895;DHT22;19251;49.484;8.260;2024-01-30T07:03:37;2.80;21.00
32895;DHT22;19251;49.484;8.260;2024-01-30T07:08:39;2.80;21.00
32895;DHT22;19251;49.484;8.260;2024-01-30T07:13:41;2.80;20.90
32895;DHT22;19251;49.484;8.260;2024-01-30T07:18:43;2.80;21.10
32895;DHT22;19251;49.484;8.260;2024-01-30T07:23:46;2.80;21.10
32895;DHT22;19251;49.484;8.260;2024-01-30T07:28:48;2.80;21.20
32895;DHT22;19251;49.484;8.260;2024-01-30T07:33:52;2.80;21.30
32895;DHT22;19251;49.484;8.260;2024-01-30T07:38:54;2.80;21.10
32895;DHT22;19251;49.484;8.260;2024-01-30T07:43:56;2.90;21.30
32895;DHT22;19251;49.484;8.260;2024-01-30T07:48:58;2.90;21.20
32895;DHT22;19251;49.484;8.260;2024-01-30T07:54:02;3.00;21.60
32895;DHT22;19251;49.484;8.260;2024-01-30T07:59:04;3.10;21.70
32895;DHT22;19251;49.484;8.260;2024-01-30T08:04:05;3.20;21.90
32895;DHT22;19251;49.484;8.260;2024-01-30T08:09:08;3.40;22.10
32895;DHT22;19251;49.484;8.260;2024-01-30T08:14:10;3.50;22.10
32895;DHT22;19251;49.484;8.260;2024-01-30T08:19:12;3.70;22.30
32895;DHT22;19251;49.484;8.260;2024-01-30T08:24:15;3.80;21.90
32895;DHT22;19251;49.484;8.260;2024-01-30T08:29:19;4.00;22.50
32895;DHT22;19251;49.484;8.260;2024-01-30T08:34:22;4.10;22.20
32895;DHT22;19251;49.484;8.260;2024-01-30T08:39:24;4.30;22.60
32895;DHT22;19251;49.484;8.260;2024-01-30T08:44:26;4.40;22.30
32895;DHT22;19251;49.484;8.260;2024-01-30T08:49:29;4.60;22.90
32895;DHT22;19251;49.484;8.260;2024-01-30T08:54:31;4.70;23.00
32895;DHT22;19251;49.484;8.260;2024-01-30T08:59:36;4.80;22.60
32895;DHT22;19251;49.484;8.260;2024-01-30T09:04:38;5.00;22.70
32895;DHT22;19251;49.484;8.260;2024-01-30T09:09:41;5.20;22.90
32895;DHT22;19251;49.484;8.260;2024-01-30T09:14:43;5.30;22.90
32895;DHT22;19251;49.484;8.260;2024-01-30T09:19:45;5.40;23.40
32895;DHT22;19251;49.484;8.260;2024-01-30T09:24:48;5.60;23.40
32895;DHT22;19251;49.484;8.260;2024-01-30T09:29:50;5.80;23.20
32895;DHT22;19251;49.484;8.260;2024-01-30T09:34:52;5.90;23.80
32895;DHT22;19251;49.484;8.260;2024-01-30T09:44:57;6.40;23.70
32895;DHT22;19251;49.484;8.260;2024-01-30T09:50:02;6.60;23.80
32895;DHT22;19251;49.484;8.260;2024-01-30T09:55:05;6.80;24.00
32895;DHT22;19251;49.484;8.260;2024-01-30T10:00:08;7.10;24.20
32895;DHT22;19251;49.484;8.260;2024-01-30T10:05:13;7.40;24.40
32895;DHT22;19251;49.484;8.260;2024-01-30T10:10:17;7.60;24.50
32895;DHT22;19251;49.484;8.260;2024-01-30T10:15:19;7.80;24.50
32895;DHT22;19251;49.484;8.260;2024-01-30T10:20:21;8.00;24.40
32895;DHT22;19251;49.484;8.260;2024-01-30T10:25:25;8.30;24.40
32895;DHT22;19251;49.484;8.260;2024-01-30T10:30:27;8.40;24.40
32895;DHT22;19251;49.484;8.260;2024-01-30T10:40:32;8.70;24.40
32895;DHT22;19251;49.484;8.260;2024-01-30T10:45:35;9.00;24.30
32895;DHT22;19251;49.484;8.260;2024-01-30T10:50:40;9.30;24.30
32895;DHT22;19251;49.484;8.260;2024-01-30T10:55:55;9.50;24.30
32895;DHT22;19251;49.484;8.260;2024-01-30T11:00:57;9.70;24.10
32895;DHT22;19251;49.484;8.260;2024-01-30T11:06:00;9.90;24.10
32895;DHT22;19251;49.484;8.260;2024-01-30T11:11:03;10.10;23.20
32895;DHT22;19251;49.484;8.260;2024-01-30T11:16:09;10.40;23.20
32895;DHT22;19251;49.484;8.260;2024-01-30T11:21:13;10.50;23.00
32895;DHT22;19251;49.484;8.260;2024-01-30T11:26:15;10.60;22.90
32895;DHT22;19251;49.484;8.260;2024-01-30T11:31:18;10.80;22.80
32895;DHT22;19251;49.484;8.260;2024-01-30T11:36:21;10.80;22.70
32895;DHT22;19251;49.484;8.260;2024-01-30T11:41:26;11.00;22.50
32895;DHT22;19251;49.484;8.260;2024-01-30T11:46:29;11.10;22.50
32895;DHT22;19251;49.484;8.260;2024-01-30T11:51:32;11.30;22.50
32895;DHT22;19251;49.484;8.260;2024-01-30T11:56:34;11.50;22.50
32895;DHT22;19251;49.484;8.260;2024-01-30T12:01:36;11.50;22.50
32895;DHT22;19251;49.484;8.260;2024-01-30T12:06:38;11.70;22.40
32895;DHT22;19251;49.484;8.260;2024-01-30T12:11:47;11.90;22.40
32895;DHT22;19251;49.484;8.260;2024-01-30T12:16:49;12.00;22.30
32895;DHT22;19251;49.484;8.260;2024-01-30T12:21:56;12.20;22.10
32895;DHT22;19251;49.484;8.260;2024-01-30T12:26:59;12.30;22.10
32895;DHT22;19251;49.484;8.260;2024-01-30T12:32:02;12.50;21.90
32895;DHT22;19251;49.484;8.260;2024-01-30T12:37:04;12.60;21.60
32895;DHT22;19251;49.484;8.260;2024-01-30T12:42:08;12.70;21.60
32895;DHT22;19251;49.484;8.260;2024-01-30T12:47:10;12.90;21.60
32895;DHT22;19251;49.484;8.260;2024-01-30T12:52:13;13.10;21.70
32895;DHT22;19251;49.484;8.260;2024-01-30T12:57:15;13.20;21.40
32895;DHT22;19251;49.484;8.260;2024-01-30T13:02:18;13.40;21.30
32895;DHT22;19251;49.484;8.260;2024-01-30T13:07:20;13.70;21.50
32895;DHT22;19251;49.484;8.260;2024-01-30T13:12:23;14.00;21.60
32895;DHT22;19251;49.484;8.260;2024-01-30T13:17:25;13.80;20.90
32895;DHT22;19251;49.484;8.260;2024-01-30T13:22:30;14.10;20.80
32895;DHT22;19251;49.484;8.260;2024-01-30T13:27:32;14.30;20.60
32895;DHT22;19251;49.484;8.260;2024-01-30T13:32:34;14.30;20.30
32895;DHT22;19251;49.484;8.260;2024-01-30T13:42:38;14.40;19.80
32895;DHT22;19251;49.484;8.260;2024-01-30T13:47:40;14.40;19.60
32895;DHT22;19251;49.484;8.260;2024-01-30T13:52:43;14.40;19.20
32895;DHT22;19251;49.484;8.260;2024-01-30T13:57:47;14.40;19.30
32895;DHT22;19251;49.484;8.260;2024-01-30T14:02:52;14.40;19.30
32895;DHT22;19251;49.484;8.260;2024-01-30T14:07:57;14.50;19.30
32895;DHT22;19251;49.484;8.260;2024-01-30T14:13:00;14.50;19.20
32895;DHT22;19251;49.484;8.260;2024-01-30T14:18:02;14.50;19.00
32895;DHT22;19251;49.484;8.260;2024-01-30T14:23:04;14.50;19.10
32895;DHT22;19251;49.484;8.260;2024-01-30T14:28:06;14.60;19.10
32895;DHT22;19251;49.484;8.260;2024-01-30T14:33:09;14.60;18.80
32895;DHT22;19251;49.484;8.260;2024-01-30T14:38:11;14.50;18.70
32895;DHT22;19251;49.484;8.260;2024-01-30T14:43:13;14.50;18.60
32895;DHT22;19251;49.484;8.260;2024-01-30T14:48:15;14.70;18.70
32895;DHT22;19251;49.484;8.260;2024-01-30T14:53:18;14.40;18.60
32895;DHT22;19251;49.484;8.260;2024-01-30T14:58:20;14.20;18.50
32895;DHT22;19251;49.484;8.260;2024-01-30T15:03:22;14.20;18.50
32895;DHT22;19251;49.484;8.260;2024-01-30T15:08:25;14.30;18.50
32895;DHT22;19251;49.484;8.260;2024-01-30T15:13:28;14.20;18.40
32895;DHT22;19251;49.484;8.260;2024-01-30T15:18:30;14.20;18.40
32895;DHT22;19251;49.484;8.260;2024-01-30T15:28:38;14.10;18.50
32895;DHT22;19251;49.484;8.260;2024-01-30T15:33:40;13.90;18.50
32895;DHT22;19251;49.484;8.260;2024-01-30T15:43:46;13.80;18.50
32895;DHT22;19251;49.484;8.260;2024-01-30T15:48:48;13.80;18.50
32895;DHT22;19251;49.484;8.260;2024-01-30T15:53:50;13.80;18.50
32895;DHT22;19251;49.484;8.260;2024-01-30T15:58:52;13.70;18.50
32895;DHT22;19251;49.484;8.260;2024-01-30T16:03:54;13.70;18.60
32895;DHT22;19251;49.484;8.260;2024-01-30T16:08:56;13.70;18.80
32895;DHT22;19251;49.484;8.260;2024-01-30T16:13:58;13.60;18.70
32895;DHT22;19251;49.484;8.260;2024-01-30T16:19:01;13.50;18.70
32895;DHT22;19251;49.484;8.260;2024-01-30T16:24:03;13.70;18.90
32895;DHT22;19251;49.484;8.260;2024-01-30T16:29:06;13.40;18.80
32895;DHT22;19251;49.484;8.260;2024-01-30T16:34:08;13.40;18.90
32895;DHT22;19251;49.484;8.260;2024-01-30T16:39:10;13.40;19.00
32895;DHT22;19251;49.484;8.260;2024-01-30T16:44:12;13.70;19.40
32895;DHT22;19251;49.484;8.260;2024-01-30T16:49:15;13.30;19.20
32895;DHT22;19251;49.484;8.260;2024-01-30T16:54:18;13.30;19.30
32895;DHT22;19251;49.484;8.260;2024-01-30T16:59:20;13.20;19.30
32895;DHT22;19251;49.484;8.260;2024-01-30T17:04:22;13.10;19.30
32895;DHT22;19251;49.484;8.260;2024-01-30T17:09:24;13.20;19.80
32895;DHT22;19251;49.484;8.260;2024-01-30T17:14:26;12.90;19.70
32895;DHT22;19251;49.484;8.260;2024-01-30T17:29:43;12.70;19.90
32895;DHT22;19251;49.484;8.260;2024-01-30T17:34:45;12.70;20.00
32895;DHT22;19251;49.484;8.260;2024-01-30T17:39:48;12.70;20.10
32895;DHT22;19251;49.484;8.260;2024-01-30T17:44:50;12.60;20.10
32895;DHT22;19251;49.484;8.260;2024-01-30T17:49:53;12.60;20.20
32895;DHT22;19251;49.484;8.260;2024-01-30T17:54:55;12.50;20.10
32895;DHT22;19251;49.484;8.260;2024-01-30T17:59:58;12.50;20.20
32895;DHT22;19251;49.484;8.260;2024-01-30T18:05:00;12.40;20.30
32895;DHT22;19251;49.484;8.260;2024-01-30T18:10:02;12.30;20.30
32895;DHT22;19251;49.484;8.260;2024-01-30T18:15:04;12.30;20.40
32895;DHT22;19251;49.484;8.260;2024-01-30T18:20:07;12.30;20.50
32895;DHT22;19251;49.484;8.260;2024-01-30T18:25:10;12.20;20.60
32895;DHT22;19251;49.484;8.260;2024-01-30T18:30:12;12.10;20.80
32895;DHT22;19251;49.484;8.260;2024-01-30T18:35:14;12.00;20.70
32895;DHT22;19251;49.484;8.260;2024-01-30T18:40:16;12.00;20.90
32895;DHT22;19251;49.484;8.260;2024-01-30T18:45:21;12.00;20.90
32895;DHT22;19251;49.484;8.260;2024-01-30T18:50:23;12.00;21.00
32895;DHT22;19251;49.484;8.260;2024-01-30T18:55:25;12.00;21.10
32895;DHT22;19251;49.484;8.260;2024-01-30T19:00:27;12.00;21.20
32895;DHT22;19251;49.484;8.260;2024-01-30T19:05:29;12.00;21.40
32895;DHT22;19251;49.484;8.260;2024-01-30T19:10:32;12.00;21.50
32895;DHT22;19251;49.484;8.260;2024-01-30T19:15:44;12.00;21.50
32895;DHT22;19251;49.484;8.260;2024-01-30T19:20:46;12.00;21.60
32895;DHT22;19251;49.484;8.260;2024-01-30T19:25:50;12.00;21.60
32895;DHT22;19251;49.484;8.260;2024-01-30T19:30:52;12.00;21.70
32895;DHT22;19251;49.484;8.260;2024-01-30T19:35:55;12.10;21.80
32895;DHT22;19251;49.484;8.260;2024-01-30T19:40:57;12.10;21.80
32895;DHT22;19251;49.484;8.260;2024-01-30T19:45:59;12.10;21.80
32895;DHT22;19251;49.484;8.260;2024-01-30T19:51:02;12.20;22.00
32895;DHT22;19251;49.484;8.260;2024-01-30T19:56:04;12.10;21.90
32895;DHT22;19251;49.484;8.260;2024-01-30T20:01:07;12.10;21.90
32895;DHT22;19251;49.484;8.260;2024-01-30T20:11:15;12.10;21.90
32895;DHT22;19251;49.484;8.260;2024-01-30T20:16:17;12.10;22.00
32895;DHT22;19251;49.484;8.260;2024-01-30T20:21:19;12.20;22.10
32895;DHT22;19251;49.484;8.260;2024-01-30T20:26:21;12.10;22.10
32895;DHT22;19251;49.484;8.260;2024-01-30T20:31:23;12.30;22.30
32895;DHT22;19251;49.484;8.260;2024-01-30T20:36:25;12.10;22.20
32895;DHT22;19251;49.484;8.260;2024-01-30T20:41:27;12.20;22.40
32895;DHT22;19251;49.484;8.260;2024-01-30T20:46:29;12.40;22.70
32895;DHT22;19251;49.484;8.260;2024-01-30T20:51:32;12.10;22.50
32895;DHT22;19251;49.484;8.260;2024-01-30T20:56:34;12.10;22.50
32895;DHT22;19251;49.484;8.260;2024-01-30T21:01:36;12.20;22.60
32895;DHT22;19251;49.484;8.260;2024-01-30T21:06:40;12.10;22.60
32895;DHT22;19251;49.484;8.260;2024-01-30T21:11:42;12.10;22.60
32895;DHT22;19251;49.484;8.260;2024-01-30T21:16:44;12.10;22.80
32895;DHT22;19251;49.484;8.260;2024-01-30T21:21:46;12.20;23.10
32895;DHT22;19251;49.484;8.260;2024-01-30T21:26:49;12.10;23.10
32895;DHT22;19251;49.484;8.260;2024-01-30T21:31:51;12.10;23.10
32895;DHT22;19251;49.484;8.260;2024-01-30T21:36:53;12.10;23.10
32895;DHT22;19251;49.484;8.260;2024-01-30T21:41:55;12.20;23.10
32895;DHT22;19251;49.484;8.260;2024-01-30T21:46:57;12.40;23.30
32895;DHT22;19251;49.484;8.260;2024-01-30T21:51:59;12.40;23.30
32895;DHT22;19251;49.484;8.260;2024-01-30T21:57:07;12.30;23.20
32895;DHT22;19251;49.484;8.260;2024-01-30T22:02:09;12.30;23.30
32895;DHT22;19251;49.484;8.260;2024-01-30T22:07:11;12.50;23.40
32895;DHT22;19251;49.484;8.260;2024-01-30T22:12:14;12.40;23.40
32895;DHT22;19251;49.484;8.260;2024-01-30T22:17:16;12.50;23.40
32895;DHT22;19251;49.484;8.260;2024-01-30T22:22:18;12.40;23.30
32895;DHT22;19251;49.484;8.260;2024-01-30T22:27:21;12.40;23.30
32895;DHT22;19251;49.484;8.260;2024-01-30T22:32:23;12.50;23.40
32895;DHT22;19251;49.484;8.260;2024-01-30T22:37:25;12.50;23.40
32895;DHT22;19251;49.484;8.260;2024-01-30T22:42:27;12.50;23.30
32895;DHT22;19251;49.484;8.260;2024-01-30T22:47:29;12.60;23.30
32895;DHT22;19251;49.484;8.260;2024-01-30T22:52:31;12.50;23.30
32895;DHT22;19251;49.484;8.260;2024-01-30T22:57:33;12.50;23.30
32895;DHT22;19251;49.484;8.260;2024-01-30T23:02:36;12.40;23.20
32895;DHT22;19251;49.484;8.260;2024-01-30T23:07:38;12.50;23.20
32895;DHT22;19251;49.484;8.260;2024-01-30T23:12:42;12.40;23.20
32895;DHT22;19251;49.484;8.260;2024-01-30T23:17:46;12.40;23.30
32895;DHT22;19251;49.484;8.260;2024-01-30T23:22:48;12.40;23.30
32895;DHT22;19251;49.484;8.260;2024-01-30T23:27:50;12.40;23.30
32895;DHT22;19251;49.484;8.260;2024-01-30T23:32:52;12.40;23.30
32895;DHT22;19251;49.484;8.260;2024-01-30T23:37:56;12.40;23.50
32895;DHT22;19251;49.484;8.260;2024-01-30T23:42:58;12.30;23.40
32895;DHT22;19251;49.484;8.260;2024-01-30T23:53:02;12.40;23.50
32895;DHT22;19251;49.484;8.260;2024-01-30T23:58:04;12.40;23.50
